createdAt,value
2019-03-12T00:01:20.265Z,46.23
2019-03-12T00:03:48.192Z,45.95
2019-03-12T00:06:15.988Z,46.05
2019-03-12T00:08:43.749Z,46.05
2019-03-12T00:11:11.529Z,46.67
2019-03-12T00:13:55.729Z,46.12
2019-03-12T00:16:23.500Z,46.17
2019-03-12T00:18:51.289Z,46.35
2019-03-12T00:21:19.038Z,45.80
2019-03-12T00:27:25.998Z,46.54
2019-03-12T00:29:53.750Z,46.07
2019-03-12T00:32:21.588Z,46.32
2019-03-12T00:34:49.333Z,46.36
2019-03-12T00:37:17.123Z,45.97
2019-03-12T00:39:44.917Z,46.18
2019-03-12T00:42:13.121Z,46.16
2019-03-12T00:44:40.949Z,45.61
2019-03-12T00:47:11.768Z,45.89
2019-03-12T00:50:01.312Z,46.10
2019-03-12T00:52:29.128Z,45.70
2019-03-12T00:54:56.931Z,46.39
2019-03-12T00:57:24.743Z,46.33
2019-03-12T00:59:52.505Z,45.98
2019-03-12T01:02:20.332Z,46.10
2019-03-12T01:04:48.165Z,46.10
2019-03-12T01:07:15.946Z,47.19
2019-03-12T01:09:43.836Z,45.52
2019-03-12T01:12:11.652Z,46.07
2019-03-12T01:14:39.419Z,46.06
2019-03-12T01:17:07.296Z,46.00
2019-03-12T01:20:06.104Z,46.06
2019-03-12T01:22:33.880Z,46.27
2019-03-12T01:25:01.675Z,46.06
2019-03-12T01:27:29.501Z,46.20
2019-03-12T01:29:57.258Z,46.17
2019-03-12T01:32:25.044Z,47.07
2019-03-12T01:34:52.814Z,46.25
2019-03-12T01:38:00.708Z,45.83
2019-03-12T01:40:28.556Z,46.08
2019-03-12T01:42:56.338Z,46.34
2019-03-12T01:45:24.332Z,46.10
2019-03-12T01:47:52.096Z,46.07
2019-03-12T01:50:19.872Z,45.94
2019-03-12T01:52:47.689Z,46.10
2019-03-12T01:58:44.005Z,45.99
2019-03-12T02:01:11.744Z,46.04
2019-03-12T02:03:39.515Z,45.91
2019-03-12T02:06:07.285Z,46.02
2019-03-12T02:08:35.054Z,45.94
2019-03-12T02:11:02.905Z,46.65
2019-03-12T02:13:30.699Z,46.22
2019-03-12T02:16:02.184Z,46.31
2019-03-12T02:18:29.952Z,45.99
2019-03-12T02:20:59.615Z,46.31
2019-03-12T02:23:29.059Z,46.02
2019-03-12T02:25:57.129Z,46.08
2019-03-12T02:28:24.891Z,46.13
2019-03-12T02:30:52.751Z,45.99
2019-03-12T02:33:20.610Z,46.02
2019-03-12T02:35:48.378Z,46.13
2019-03-12T02:38:16.140Z,45.82
2019-03-12T02:40:43.909Z,45.99
2019-03-12T02:43:11.694Z,45.71
2019-03-12T02:45:39.487Z,45.83
2019-03-12T02:48:07.323Z,46.33
2019-03-12T02:50:35.160Z,45.73
2019-03-12T02:53:02.912Z,45.97
2019-03-12T02:55:30.701Z,45.83
2019-03-12T02:58:05.676Z,45.80
2019-03-12T03:00:33.526Z,45.84
2019-03-12T03:03:01.505Z,45.75
2019-03-12T03:05:29.461Z,46.08
2019-03-12T03:08:02.862Z,45.72
2019-03-12T03:10:30.619Z,45.93
2019-03-12T03:12:58.471Z,45.98
2019-03-12T03:15:27.458Z,45.80
2019-03-12T03:17:55.258Z,45.84
2019-03-12T03:20:23.027Z,45.54
2019-03-12T03:22:50.834Z,45.39
2019-03-12T03:25:18.577Z,45.62
2019-03-12T03:27:46.343Z,45.39
2019-03-12T03:30:15.846Z,45.69
2019-03-12T03:32:43.668Z,45.62
2019-03-12T03:35:36.758Z,45.21
2019-03-12T03:38:04.564Z,45.18
2019-03-12T03:40:32.393Z,45.23
2019-03-12T03:46:17.725Z,44.99
2019-03-12T03:48:45.477Z,45.36
2019-03-12T03:51:13.256Z,45.24
2019-03-12T03:53:41.074Z,45.43
2019-03-12T03:56:09.109Z,45.45
2019-03-12T03:58:36.952Z,45.34
2019-03-12T04:01:04.722Z,45.33
2019-03-12T04:03:32.546Z,45.49
2019-03-12T04:06:00.563Z,45.47
2019-03-12T04:08:28.400Z,45.46
2019-03-12T04:10:56.190Z,45.37
2019-03-12T04:13:24.027Z,45.39
2019-03-12T04:15:52.062Z,45.46
2019-03-12T04:18:20.005Z,45.41
2019-03-12T04:20:48.531Z,45.68
2019-03-12T04:23:16.620Z,45.58
2019-03-12T04:25:44.402Z,45.76
2019-03-12T04:28:12.154Z,45.58
2019-03-12T04:30:40.251Z,45.62
2019-03-12T04:33:12.588Z,45.58
2019-03-12T04:35:40.353Z,45.64
2019-03-12T04:38:08.586Z,45.43
2019-03-12T04:40:36.356Z,45.71
2019-03-12T04:43:22.220Z,45.64
2019-03-12T04:45:49.972Z,45.64
2019-03-12T04:48:24.746Z,45.56
2019-03-12T04:50:52.575Z,45.70
2019-03-12T04:53:20.418Z,45.62
2019-03-12T04:55:48.325Z,45.89
2019-03-12T04:58:16.210Z,45.98
2019-03-12T05:00:44.062Z,45.63
2019-03-12T05:03:11.962Z,45.31
2019-03-12T05:05:40.029Z,45.58
2019-03-12T05:08:08.821Z,45.34
2019-03-12T05:10:36.756Z,45.37
2019-03-12T05:13:04.584Z,45.48
2019-03-12T05:15:32.440Z,45.48
2019-03-12T05:18:01.156Z,45.29
2019-03-12T05:20:29.043Z,45.18
2019-03-12T05:22:57.116Z,45.33
2019-03-12T05:25:26.177Z,45.12
2019-03-12T05:27:54.145Z,45.04
2019-03-12T05:30:22.040Z,45.13
2019-03-12T05:32:49.866Z,45.15
2019-03-12T05:35:18.609Z,45.02
2019-03-12T05:37:46.416Z,44.73
2019-03-12T05:40:14.343Z,44.77
2019-03-12T05:42:42.344Z,44.47
2019-03-12T05:45:10.438Z,44.51
2019-03-12T05:47:39.331Z,44.54
2019-03-12T05:50:07.539Z,44.61
2019-03-12T05:52:35.435Z,45.21
2019-03-12T05:55:05.491Z,45.13
2019-03-12T05:57:34.310Z,45.01
2019-03-12T06:00:02.238Z,44.97
2019-03-12T06:02:30.035Z,45.02
2019-03-12T06:04:57.882Z,44.81
2019-03-12T06:07:26.553Z,44.88
2019-03-12T06:09:54.381Z,44.87
2019-03-12T06:12:22.194Z,44.75
2019-03-12T06:14:50.150Z,44.94
2019-03-12T06:17:18.092Z,44.43
2019-03-12T06:19:45.922Z,44.56
2019-03-12T06:22:13.980Z,44.63
2019-03-12T06:28:05.120Z,44.94
2019-03-12T06:30:51.969Z,44.73
2019-03-12T06:33:24.655Z,45.10
2019-03-12T06:35:59.210Z,45.03
2019-03-12T06:38:48.009Z,45.12
2019-03-12T06:41:31.564Z,45.05
2019-03-12T06:50:41.731Z,44.68
2019-03-12T06:56:54.550Z,44.92
2019-03-12T06:59:28.895Z,44.62
2019-03-12T07:02:28.095Z,45.02
2019-03-12T07:05:15.977Z,44.89
2019-03-12T07:08:06.560Z,44.97
2019-03-12T07:11:14.226Z,44.64
2019-03-12T07:13:57.306Z,44.26
2019-03-12T07:16:39.889Z,44.26
2019-03-12T07:19:24.559Z,44.47
2019-03-12T07:22:14.503Z,44.46
2019-03-12T07:25:07.735Z,44.42
2019-03-12T07:28:00.209Z,44.36
2019-03-12T07:30:57.449Z,44.67
2019-03-12T07:34:02.190Z,44.70
2019-03-12T07:36:40.617Z,44.88
2019-03-12T07:39:26.559Z,44.85
2019-03-12T07:42:03.647Z,44.43
2019-03-12T07:44:49.772Z,44.39
2019-03-12T07:47:37.347Z,44.65
2019-03-12T07:50:27.707Z,44.53
2019-03-12T07:53:15.261Z,44.64
2019-03-12T07:56:00.728Z,44.44
2019-03-12T07:58:46.604Z,44.77
2019-03-12T08:01:26.874Z,44.30
2019-03-12T08:04:05.657Z,44.14
2019-03-12T08:06:49.172Z,44.86
2019-03-12T08:09:24.670Z,44.56
2019-03-12T08:12:10.459Z,44.72
2019-03-12T08:14:48.378Z,44.85
2019-03-12T08:17:39.051Z,45.09
2019-03-12T08:20:23.700Z,45.11
2019-03-12T08:23:15.855Z,44.88
2019-03-12T08:26:15.302Z,44.41
2019-03-12T08:29:17.808Z,44.67
2019-03-12T08:32:18.335Z,45.17
2019-03-12T08:35:01.006Z,45.41
2019-03-12T08:37:35.405Z,45.03
2019-03-12T08:40:29.285Z,45.08
2019-03-12T08:43:11.923Z,45.09
2019-03-12T08:46:02.372Z,44.81
2019-03-12T08:48:55.425Z,44.71
2019-03-12T08:51:41.791Z,44.90
2019-03-12T08:54:53.501Z,45.30
2019-03-12T08:57:35.687Z,45.66
2019-03-12T09:00:17.312Z,46.05
2019-03-12T09:03:00.873Z,45.89
2019-03-12T09:06:06.796Z,46.08
2019-03-12T09:08:45.920Z,46.25
2019-03-12T09:11:36.343Z,46.21
2019-03-12T09:14:15.444Z,46.22
2019-03-12T09:17:01.839Z,46.38
2019-03-12T09:19:48.733Z,46.32
2019-03-12T09:22:42.443Z,46.25
2019-03-12T09:25:30.139Z,46.46
2019-03-12T09:28:18.127Z,46.39
2019-03-12T09:31:04.259Z,46.30
2019-03-12T09:33:43.289Z,46.37
2019-03-12T09:36:31.351Z,46.40
2019-03-12T09:39:17.568Z,46.40
2019-03-12T09:42:03.622Z,46.10
2019-03-12T09:44:59.038Z,46.37
2019-03-12T09:47:37.466Z,46.52
2019-03-12T09:50:11.398Z,46.52
2019-03-12T09:52:57.840Z,46.62
2019-03-12T09:55:46.464Z,46.47
2019-03-12T09:58:32.723Z,46.26
2019-03-12T10:01:14.190Z,46.37
2019-03-12T10:03:51.497Z,46.29
2019-03-12T10:06:47.557Z,46.42
2019-03-12T10:09:46.203Z,46.71
2019-03-12T10:12:21.573Z,46.52
2019-03-12T10:15:11.270Z,46.02
2019-03-12T10:17:58.029Z,45.70
2019-03-12T10:21:00.324Z,45.93
2019-03-12T10:23:53.338Z,46.47
2019-03-12T10:26:27.582Z,45.59
2019-03-12T10:29:09.980Z,45.70
2019-03-12T10:31:44.324Z,45.90
2019-03-12T10:34:30.339Z,46.70
2019-03-12T10:37:16.685Z,45.71
2019-03-12T10:40:20.044Z,45.76
2019-03-12T10:43:01.513Z,45.99
2019-03-12T10:46:00.589Z,45.94
2019-03-12T10:48:28.880Z,45.59
2019-03-12T10:50:56.636Z,45.36
2019-03-12T10:53:24.380Z,45.60
2019-03-12T10:55:52.161Z,45.86
2019-03-12T10:58:20.077Z,46.25
2019-03-12T11:00:47.876Z,46.66
2019-03-12T11:03:15.836Z,46.09
2019-03-12T11:05:46.135Z,46.26
2019-03-12T11:08:13.216Z,46.42
2019-03-12T11:10:41.034Z,46.03
2019-03-12T11:13:08.781Z,46.23
2019-03-12T11:15:36.571Z,46.39
2019-03-12T11:18:04.488Z,46.46
2019-03-12T11:20:33.508Z,46.58
2019-03-12T11:23:01.264Z,46.34
2019-03-12T11:25:29.015Z,46.35
2019-03-12T11:27:56.771Z,46.18
2019-03-12T11:30:24.704Z,45.90
2019-03-12T11:32:52.457Z,46.30
2019-03-12T11:35:20.233Z,46.21
2019-03-12T11:37:48.011Z,46.19
2019-03-12T11:40:16.705Z,46.69
2019-03-12T11:42:44.616Z,46.56
2019-03-12T11:45:16.359Z,46.45
2019-03-12T11:47:42.242Z,45.83
2019-03-12T11:50:11.276Z,45.66
2019-03-12T11:52:39.113Z,46.12
2019-03-12T11:55:06.897Z,46.69
2019-03-12T11:57:34.728Z,46.41
2019-03-12T12:00:03.493Z,46.35
2019-03-12T12:02:31.313Z,46.00
2019-03-12T12:04:59.133Z,46.08
2019-03-12T12:07:26.975Z,46.09
2019-03-12T12:09:54.919Z,45.97
2019-03-12T12:12:22.736Z,46.64
2019-03-12T12:14:50.505Z,46.26
2019-03-12T12:17:18.307Z,46.32
2019-03-12T12:19:46.089Z,45.91
2019-03-12T12:22:13.862Z,46.00
2019-03-12T12:24:41.780Z,46.07
2019-03-12T12:27:09.582Z,45.97
2019-03-12T12:29:38.442Z,46.12
2019-03-12T12:32:06.193Z,46.17
2019-03-12T12:34:33.969Z,46.29
2019-03-12T12:37:01.772Z,47.07
2019-03-12T12:39:29.787Z,46.44
2019-03-12T12:41:57.557Z,45.78
2019-03-12T12:44:25.389Z,46.36
2019-03-12T12:46:53.224Z,46.19
2019-03-12T12:49:20.969Z,46.36
2019-03-12T12:51:48.816Z,46.42
2019-03-12T12:54:16.641Z,46.05
2019-03-12T12:56:44.649Z,46.48
2019-03-12T12:59:12.425Z,46.52
2019-03-12T13:01:40.188Z,46.60
2019-03-12T13:04:07.969Z,46.70
2019-03-12T13:06:35.751Z,46.97
2019-03-12T13:09:04.672Z,46.75
2019-03-12T13:11:32.438Z,46.77
2019-03-12T13:14:00.192Z,46.65
2019-03-12T13:16:27.969Z,46.59
2019-03-12T13:18:55.699Z,46.20
2019-03-12T13:21:23.486Z,46.50
2019-03-12T13:23:51.232Z,46.52
2019-03-12T13:26:19.096Z,46.43
2019-03-12T13:28:46.916Z,46.39
2019-03-12T13:31:14.695Z,46.59
2019-03-12T13:33:42.480Z,46.40
2019-03-12T13:36:15.075Z,46.42
2019-03-12T13:38:46.198Z,45.69
2019-03-12T13:41:12.322Z,45.89
2019-03-12T13:43:40.147Z,45.90
2019-03-12T13:46:08.188Z,45.88
2019-03-12T13:48:35.949Z,45.98
2019-03-12T13:51:03.696Z,45.97
2019-03-12T13:53:31.453Z,46.08
2019-03-12T13:55:59.434Z,45.90
2019-03-12T13:58:27.296Z,46.07
2019-03-12T14:00:55.445Z,45.64
2019-03-12T14:03:23.750Z,45.60
2019-03-12T14:05:56.069Z,45.52
2019-03-12T14:08:24.326Z,46.19
2019-03-12T14:10:52.164Z,46.17
2019-03-12T14:13:19.988Z,45.84
2019-03-12T14:15:47.768Z,45.49
2019-03-12T14:18:15.510Z,45.61
2019-03-12T14:20:44.036Z,45.52
2019-03-12T14:23:12.636Z,45.64
2019-03-12T14:25:40.399Z,46.14
2019-03-12T14:28:08.148Z,45.53
2019-03-12T14:30:35.984Z,45.52
2019-03-12T14:33:03.797Z,45.74
2019-03-12T14:35:31.878Z,45.82
2019-03-12T14:37:59.631Z,45.89
2019-03-12T14:40:27.517Z,45.55
2019-03-12T14:42:55.286Z,45.77
2019-03-12T14:45:24.380Z,45.62
2019-03-12T14:47:52.165Z,45.20
2019-03-12T14:50:20.002Z,45.07
2019-03-12T14:52:48.930Z,45.48
2019-03-12T14:55:16.747Z,45.91
2019-03-12T14:57:44.495Z,46.04
2019-03-12T15:00:16.484Z,45.62
2019-03-12T15:02:44.252Z,45.69
2019-03-12T15:05:11.991Z,45.36
2019-03-12T15:07:39.739Z,45.65
2019-03-12T15:10:08.080Z,45.42
2019-03-12T15:12:35.828Z,45.59
2019-03-12T15:15:03.714Z,45.68
2019-03-12T15:17:31.533Z,45.77
2019-03-12T15:19:59.474Z,45.54
2019-03-12T15:22:27.228Z,45.38
2019-03-12T15:24:54.999Z,45.47
2019-03-12T15:27:23.014Z,45.38
2019-03-12T15:29:50.769Z,45.26
2019-03-12T15:32:18.531Z,45.71
2019-03-12T15:34:46.318Z,45.68
2019-03-12T15:37:14.138Z,45.35
2019-03-12T15:39:41.958Z,45.46
2019-03-12T15:42:09.722Z,45.26
2019-03-12T15:44:37.505Z,45.23
2019-03-12T15:47:08.784Z,44.54
2019-03-12T15:49:34.990Z,44.79
2019-03-12T15:52:04.305Z,45.33
2019-03-12T15:54:32.088Z,45.07
2019-03-12T15:57:00.200Z,45.21
2019-03-12T15:59:28.003Z,45.18
2019-03-12T16:01:55.829Z,44.87
2019-03-12T16:04:23.832Z,45.18
2019-03-12T16:07:00.846Z,45.15
2019-03-12T16:09:21.077Z,45.22
2019-03-12T16:11:48.812Z,45.15
2019-03-12T16:14:16.638Z,44.17
2019-03-12T16:16:44.394Z,44.44
2019-03-12T16:19:12.187Z,44.54
2019-03-12T16:21:40.587Z,44.81
2019-03-12T16:24:08.459Z,45.04
2019-03-12T16:26:36.293Z,44.85
2019-03-12T16:29:04.300Z,44.64
2019-03-12T16:31:32.065Z,44.58
2019-03-12T16:33:59.824Z,44.79
2019-03-12T16:36:27.569Z,44.61
2019-03-12T16:38:55.651Z,44.74
2019-03-12T16:41:23.391Z,44.32
2019-03-12T16:43:51.153Z,44.31
2019-03-12T16:46:18.931Z,44.51
2019-03-12T16:48:48.737Z,44.04
2019-03-12T16:51:16.266Z,44.12
2019-03-12T16:53:44.009Z,44.68
2019-03-12T16:56:12.072Z,44.34
2019-03-12T16:58:39.860Z,44.45
2019-03-12T17:01:07.680Z,44.36
2019-03-12T17:03:35.516Z,44.27
2019-03-12T17:06:04.089Z,44.38
2019-03-12T17:08:31.924Z,44.49
2019-03-12T17:11:02.696Z,44.61
2019-03-12T17:13:29.302Z,44.41
2019-03-12T17:15:57.069Z,44.23
2019-03-12T17:18:24.906Z,44.30
2019-03-12T17:20:52.671Z,44.30
2019-03-12T17:23:23.872Z,43.84
2019-03-12T17:25:52.111Z,43.84
2019-03-12T17:28:19.897Z,43.77
2019-03-12T17:30:51.115Z,43.95
2019-03-12T17:33:21.034Z,43.94
2019-03-12T17:35:49.333Z,43.98
2019-03-12T17:38:17.141Z,44.12
2019-03-12T17:40:44.915Z,44.12
2019-03-12T17:43:12.685Z,44.31
2019-03-12T17:45:42.349Z,44.21
2019-03-12T17:48:13.972Z,44.39
2019-03-12T17:50:41.740Z,44.28
2019-03-12T17:58:15.117Z,43.86
2019-03-12T18:07:17.161Z,44.46
2019-03-12T18:11:02.754Z,44.43
2019-03-12T18:12:54.030Z,44.17
2019-03-12T18:15:30.657Z,44.89
2019-03-12T18:17:58.500Z,44.28
2019-03-12T18:20:28.353Z,44.72
2019-03-12T18:22:56.134Z,44.71
2019-03-12T18:25:32.148Z,44.52
2019-03-12T18:28:03.743Z,44.24
2019-03-12T18:32:16.234Z,44.09
2019-03-12T18:37:03.831Z,44.19
2019-03-12T18:39:35.415Z,44.29
2019-03-12T18:42:03.163Z,44.23
2019-03-12T18:44:30.935Z,44.24
2019-03-12T18:46:58.983Z,44.29
2019-03-12T18:49:26.860Z,44.39
2019-03-12T18:51:54.602Z,44.57
2019-03-12T18:54:22.448Z,44.50
2019-03-12T18:56:50.272Z,44.30
2019-03-12T18:59:16.878Z,44.53
2019-03-12T19:02:04.536Z,44.30
2019-03-12T19:04:34.116Z,43.93
2019-03-12T19:07:18.422Z,44.17
2019-03-12T19:09:43.286Z,44.36
2019-03-12T19:12:11.062Z,44.47
2019-03-12T19:14:38.865Z,44.36
2019-03-12T19:17:06.578Z,44.23
2019-03-12T19:19:35.523Z,44.20
2019-03-12T19:22:03.283Z,44.29
2019-03-12T19:24:30.998Z,44.25
2019-03-12T19:35:18.938Z,44.53
2019-03-12T19:37:46.723Z,44.12
2019-03-12T19:40:17.310Z,43.91
2019-03-12T19:42:47.115Z,44.00
2019-03-12T19:45:14.478Z,43.87
2019-03-12T19:47:43.155Z,44.14
2019-03-12T19:50:11.806Z,44.35
2019-03-12T19:52:39.521Z,44.42
2019-03-12T19:55:08.414Z,44.36
2019-03-12T19:57:36.137Z,44.02
2019-03-12T20:00:04.189Z,43.82
2019-03-12T20:02:31.902Z,43.96
2019-03-12T20:04:59.665Z,43.99
2019-03-12T20:07:27.419Z,44.17
2019-03-12T20:10:08.395Z,43.99
2019-03-12T20:12:53.479Z,43.97
2019-03-12T20:15:37.730Z,44.20
2019-03-12T20:18:15.123Z,43.98
2019-03-12T20:20:58.903Z,44.16
2019-03-12T20:23:35.939Z,43.81
2019-03-12T20:26:28.427Z,44.13
2019-03-12T20:29:21.107Z,44.11
2019-03-12T20:32:06.814Z,44.35
2019-03-12T20:34:52.551Z,44.39
2019-03-12T20:37:38.697Z,44.43
2019-03-12T20:40:18.564Z,44.24
2019-03-12T20:43:04.575Z,44.46
2019-03-12T20:45:38.789Z,44.17
2019-03-12T20:48:28.791Z,44.26
2019-03-12T20:51:12.849Z,44.36
2019-03-12T20:53:55.488Z,44.98
2019-03-12T20:56:41.434Z,44.16
2019-03-12T20:59:28.237Z,44.41
2019-03-12T21:02:09.982Z,44.24
2019-03-12T21:04:55.804Z,44.31
2019-03-12T21:07:41.562Z,43.46
2019-03-12T21:10:28.577Z,43.59
2019-03-12T21:13:09.047Z,43.45
2019-03-12T21:15:57.942Z,43.01
2019-03-12T21:18:45.167Z,43.12
2019-03-12T21:21:30.986Z,43.67
2019-03-12T21:24:18.095Z,43.15
2019-03-12T21:27:09.994Z,42.80
2019-03-12T21:29:47.416Z,43.18
2019-03-12T21:32:15.860Z,43.17
2019-03-12T21:34:43.663Z,42.98
2019-03-12T21:37:11.500Z,43.51
2019-03-12T21:39:39.213Z,43.78
2019-03-12T21:42:07.246Z,43.91
2019-03-12T21:44:34.979Z,43.54
2019-03-12T21:47:03.302Z,44.00
2019-03-12T21:49:31.054Z,44.23
2019-03-12T21:51:58.967Z,44.12
2019-03-12T21:54:27.051Z,43.97
2019-03-12T21:56:54.913Z,44.02
2019-03-12T21:59:24.295Z,44.25
2019-03-12T22:01:56.339Z,44.28
2019-03-12T22:04:24.663Z,44.41
2019-03-12T22:06:56.193Z,44.56
2019-03-12T22:09:27.179Z,44.51
2019-03-12T22:11:55.125Z,44.74
2019-03-12T22:14:24.112Z,44.29
2019-03-12T22:16:54.779Z,44.28
2019-03-12T22:19:22.509Z,44.02
2019-03-12T22:22:04.246Z,43.91
2019-03-12T22:25:02.542Z,43.63
2019-03-12T22:27:21.070Z,43.92
2019-03-12T22:29:48.930Z,43.66
2019-03-12T22:32:17.975Z,44.14
2019-03-12T22:35:14.470Z,44.45
2019-03-12T22:37:58.523Z,44.51
2019-03-12T22:40:28.018Z,44.59
2019-03-12T22:42:55.980Z,44.40
2019-03-12T22:45:26.431Z,44.21
2019-03-12T22:48:01.700Z,44.22
2019-03-12T22:50:31.979Z,44.43
2019-03-12T22:52:59.889Z,44.64
2019-03-12T22:55:27.975Z,44.54
2019-03-12T23:01:05.883Z,44.56
2019-03-12T23:03:33.634Z,44.53
2019-03-12T23:06:01.445Z,44.39
2019-03-12T23:08:29.167Z,44.24
2019-03-12T23:10:56.986Z,43.62
2019-03-12T23:13:24.835Z,44.10
2019-03-12T23:15:52.663Z,44.36
2019-03-12T23:18:20.605Z,43.96
2019-03-12T23:20:48.380Z,44.33
2019-03-12T23:23:16.169Z,44.47
2019-03-12T23:26:04.854Z,44.58
2019-03-12T23:28:32.724Z,45.20
2019-03-12T23:31:00.503Z,45.17
2019-03-12T23:33:28.321Z,45.01
2019-03-12T23:35:56.111Z,45.08
2019-03-12T23:38:23.941Z,45.71
2019-03-12T23:40:51.709Z,45.30
2019-03-12T23:43:19.520Z,45.28
2019-03-12T23:45:47.713Z,44.98
2019-03-12T23:48:15.472Z,45.85
2019-03-12T23:50:43.337Z,45.51
2019-03-12T23:53:11.144Z,45.15
2019-03-12T23:55:38.942Z,45.31
2019-03-12T23:58:24.041Z,45.38
